sensor_id;sensor_type;location;lat;lon;timestamp;pressure;altitude;pressure_sealevel;temperature;humidity
3082;BME280;1551;51.046;7.010;2023-05-22T00:01:18;100673.31;;;19.54;93.39
3082;BME280;1551;51.046;7.010;2023-05-22T00:04:07;100675.81;;;19.55;93.71
3082;BME280;1551;51.046;7.010;2023-05-22T00:06:56;100666.09;;;19.42;93.50
3082;BME280;1551;51.046;7.010;2023-05-22T00:09:45;100668.47;;;19.46;93.35
3082;BME280;1551;51.046;7.010;2023-05-22T00:12:34;100663.28;;;19.46;93.58
3082;BME280;1551;51.046;7.010;2023-05-22T00:15:23;100659.38;;;19.38;93.45
3082;BME280;1551;51.046;7.010;2023-05-22T00:18:12;100670.06;;;19.30;93.50
3082;BME280;1551;51.046;7.010;2023-05-22T00:21:01;100664.19;;;19.27;94.01
3082;BME280;1551;51.046;7.010;2023-05-22T00:23:50;100664.25;;;19.25;94.05
3082;BME280;1551;51.046;7.010;2023-05-22T00:26:39;100661.84;;;19.20;94.33
3082;BME280;1551;51.046;7.010;2023-05-22T00:29:28;100661.81;;;19.22;93.99
3082;BME280;1551;51.046;7.010;2023-05-22T00:32:19;100655.91;;;19.18;93.67
3082;BME280;1551;51.046;7.010;2023-05-22T00:35:08;100653.38;;;19.17;93.49
3082;BME280;1551;51.046;7.010;2023-05-22T00:37:57;100650.03;;;19.15;93.74
3082;BME280;1551;51.046;7.010;2023-05-22T00:40:46;100650.06;;;19.13;94.52
3082;BME280;1551;51.046;7.010;2023-05-22T00:43:37;100645.53;;;19.00;94.50
3082;BME280;1551;51.046;7.010;2023-05-22T00:46:26;100643.25;;;18.92;95.13
3082;BME280;1551;51.046;7.010;2023-05-22T00:49:15;100644.03;;;18.94;95.01
3082;BME280;1551;51.046;7.010;2023-05-22T00:52:04;100642.28;;;18.95;94.52
3082;BME280;1551;51.046;7.010;2023-05-22T00:54:53;100644.19;;;18.91;94.21
3082;BME280;1551;51.046;7.010;2023-05-22T00:57:42;100641.53;;;18.93;94.27
3082;BME280;1551;51.046;7.010;2023-05-22T01:00:33;100644.13;;;18.93;94.23
3082;BME280;1551;51.046;7.010;2023-05-22T01:03:23;100646.34;;;18.82;93.75
3082;BME280;1551;51.046;7.010;2023-05-22T01:06:14;100646.06;;;18.88;94.06
3082;BME280;1551;51.046;7.010;2023-05-22T01:09:06;100649.44;;;18.90;93.77
3082;BME280;1551;51.046;7.010;2023-05-22T01:18:19;100655.47;;;18.90;93.83
3082;BME280;1551;51.046;7.010;2023-05-22T01:25:35;100654.81;;;18.85;90.96
3082;BME280;1551;51.046;7.010;2023-05-22T01:31:42;100658.91;;;18.91;90.52
3082;BME280;1551;51.046;7.010;2023-05-22T01:34:33;100654.13;;;18.82;91.01
3082;BME280;1551;51.046;7.010;2023-05-22T01:37:26;100646.47;;;18.79;91.39
3082;BME280;1551;51.046;7.010;2023-05-22T01:40:16;100659.25;;;18.83;91.16
3082;BME280;1551;51.046;7.010;2023-05-22T01:43:07;100655.81;;;18.83;91.00
3082;BME280;1551;51.046;7.010;2023-05-22T01:45:56;100660.00;;;18.85;90.41
3082;BME280;1551;51.046;7.010;2023-05-22T01:48:45;100661.72;;;18.86;90.21
3082;BME280;1551;51.046;7.010;2023-05-22T01:54:48;100647.59;;;18.73;90.52
3082;BME280;1551;51.046;7.010;2023-05-22T01:57:59;100644.94;;;18.75;91.49
3082;BME280;1551;51.046;7.010;2023-05-22T02:00:55;100639.03;;;18.71;91.50
3082;BME280;1551;51.046;7.010;2023-05-22T02:03:44;100640.84;;;18.69;91.53
3082;BME280;1551;51.046;7.010;2023-05-22T02:06:36;100641.91;;;18.65;92.08
3082;BME280;1551;51.046;7.010;2023-05-22T02:09:29;100630.19;;;18.57;92.13
3082;BME280;1551;51.046;7.010;2023-05-22T02:12:20;100623.72;;;18.46;92.26
3082;BME280;1551;51.046;7.010;2023-05-22T02:15:10;100645.69;;;18.58;92.25
3082;BME280;1551;51.046;7.010;2023-05-22T02:18:00;100626.31;;;18.46;92.32
3082;BME280;1551;51.046;7.010;2023-05-22T02:20:50;100639.06;;;18.51;92.76
3082;BME280;1551;51.046;7.010;2023-05-22T02:23:39;100631.31;;;18.51;92.67
3082;BME280;1551;51.046;7.010;2023-05-22T02:26:28;100639.06;;;18.51;92.27
3082;BME280;1551;51.046;7.010;2023-05-22T02:29:17;100634.19;;;18.43;92.50
3082;BME280;1551;51.046;7.010;2023-05-22T02:32:06;100615.34;;;18.40;92.57
3082;BME280;1551;51.046;7.010;2023-05-22T02:34:56;100629.19;;;18.39;92.35
3082;BME280;1551;51.046;7.010;2023-05-22T02:37:47;100632.53;;;18.42;92.44
3082;BME280;1551;51.046;7.010;2023-05-22T02:40:36;100634.19;;;18.43;92.17
3082;BME280;1551;51.046;7.010;2023-05-22T02:43:25;100625.56;;;18.43;92.49
3082;BME280;1551;51.046;7.010;2023-05-22T02:46:14;100631.72;;;18.40;92.92
3082;BME280;1551;51.046;7.010;2023-05-22T02:49:04;100627.53;;;18.38;92.84
3082;BME280;1551;51.046;7.010;2023-05-22T02:51:54;100627.72;;;18.33;92.79
3082;BME280;1551;51.046;7.010;2023-05-22T02:54:43;100620.97;;;18.29;92.90
3082;BME280;1551;51.046;7.010;2023-05-22T02:57:32;100619.03;;;18.34;92.34
3082;BME280;1551;51.046;7.010;2023-05-22T03:00:21;100620.00;;;18.32;91.53
3082;BME280;1551;51.046;7.010;2023-05-22T03:03:10;100613.47;;;18.23;92.03
3082;BME280;1551;51.046;7.010;2023-05-22T03:06:01;100607.06;;;18.12;93.14
3082;BME280;1551;51.046;7.010;2023-05-22T03:08:52;100591.94;;;18.03;92.89
3082;BME280;1551;51.046;7.010;2023-05-22T03:11:41;100612.28;;;18.10;93.16
3082;BME280;1551;51.046;7.010;2023-05-22T03:14:30;100614.97;;;18.09;93.18
3082;BME280;1551;51.046;7.010;2023-05-22T03:17:20;100606.50;;;18.05;93.60
3082;BME280;1551;51.046;7.010;2023-05-22T03:20:10;100604.78;;;18.04;93.21
3082;BME280;1551;51.046;7.010;2023-05-22T03:23:05;100620.59;;;17.98;92.82
3082;BME280;1551;51.046;7.010;2023-05-22T03:25:55;100617.59;;;17.87;93.64
3082;BME280;1551;51.046;7.010;2023-05-22T03:28:49;100610.59;;;17.89;93.57
3082;BME280;1551;51.046;7.010;2023-05-22T03:31:39;100618.97;;;17.96;93.10
3082;BME280;1551;51.046;7.010;2023-05-22T03:34:31;100622.38;;;17.96;93.33
3082;BME280;1551;51.046;7.010;2023-05-22T03:37:21;100600.63;;;17.80;93.30
3082;BME280;1551;51.046;7.010;2023-05-22T03:40:11;100618.25;;;17.92;93.80
3082;BME280;1551;51.046;7.010;2023-05-22T03:43:00;100618.19;;;17.94;94.04
3082;BME280;1551;51.046;7.010;2023-05-22T03:45:49;100622.34;;;17.98;94.18
3082;BME280;1551;51.046;7.010;2023-05-22T03:48:39;100625.91;;;17.95;94.23
3082;BME280;1551;51.046;7.010;2023-05-22T03:51:28;100604.19;;;17.77;94.26
3082;BME280;1551;51.046;7.010;2023-05-22T03:54:17;100627.56;;;17.96;94.20
3082;BME280;1551;51.046;7.010;2023-05-22T03:57:06;100631.94;;;17.96;93.99
3082;BME280;1551;51.046;7.010;2023-05-22T03:59:54;100632.94;;;17.92;94.27
3082;BME280;1551;51.046;7.010;2023-05-22T04:02:44;100607.81;;;17.73;94.11
3082;BME280;1551;51.046;7.010;2023-05-22T04:05:34;100616.03;;;17.83;94.34
3082;BME280;1551;51.046;7.010;2023-05-22T04:08:23;100631.13;;;17.94;94.04
3082;BME280;1551;51.046;7.010;2023-05-22T04:11:12;100633.19;;;17.85;93.70
3082;BME280;1551;51.046;7.010;2023-05-22T04:14:03;100639.22;;;17.86;93.26
3082;BME280;1551;51.046;7.010;2023-05-22T04:16:51;100638.31;;;17.87;93.60
3082;BME280;1551;51.046;7.010;2023-05-22T04:19:40;100645.06;;;17.91;93.98
3082;BME280;1551;51.046;7.010;2023-05-22T04:22:29;100655.16;;;17.97;93.96
3082;BME280;1551;51.046;7.010;2023-05-22T04:25:21;100658.31;;;18.05;93.82
3082;BME280;1551;51.046;7.010;2023-05-22T04:28:10;100655.63;;;18.07;94.07
3082;BME280;1551;51.046;7.010;2023-05-22T04:31:01;100658.03;;;18.11;94.17
3082;BME280;1551;51.046;7.010;2023-05-22T04:33:54;100656.41;;;18.09;94.40
3082;BME280;1551;51.046;7.010;2023-05-22T04:36:43;100658.72;;;18.15;94.60
3082;BME280;1551;51.046;7.010;2023-05-22T04:39:36;100662.75;;;18.22;94.53
3082;BME280;1551;51.046;7.010;2023-05-22T04:42:25;100657.56;;;18.22;93.71
3082;BME280;1551;51.046;7.010;2023-05-22T04:45:15;100663.38;;;18.28;93.47
3082;BME280;1551;51.046;7.010;2023-05-22T04:48:07;100671.75;;;18.33;93.95
3082;BME280;1551;51.046;7.010;2023-05-22T04:50:58;100654.66;;;18.29;93.27
3082;BME280;1551;51.046;7.010;2023-05-22T04:53:47;100658.63;;;18.38;93.33
3082;BME280;1551;51.046;7.010;2023-05-22T04:56:37;100657.50;;;18.43;93.17
3082;BME280;1551;51.046;7.010;2023-05-22T04:59:27;100650.53;;;18.45;92.78
3082;BME280;1551;51.046;7.010;2023-05-22T05:02:16;100654.91;;;18.43;92.83
3082;BME280;1551;51.046;7.010;2023-05-22T05:05:05;100662.41;;;18.51;93.28
3082;BME280;1551;51.046;7.010;2023-05-22T05:07:54;100655.00;;;18.62;93.12
3082;BME280;1551;51.046;7.010;2023-05-22T05:10:45;100660.63;;;18.72;93.01
3082;BME280;1551;51.046;7.010;2023-05-22T05:13:34;100652.66;;;18.76;93.17
3082;BME280;1551;51.046;7.010;2023-05-22T05:16:23;100653.63;;;18.74;92.44
3082;BME280;1551;51.046;7.010;2023-05-22T05:19:13;100647.19;;;18.64;92.07
3082;BME280;1551;51.046;7.010;2023-05-22T05:22:04;100657.81;;;18.76;92.12
3082;BME280;1551;51.046;7.010;2023-05-22T05:24:54;100663.75;;;18.80;92.28
3082;BME280;1551;51.046;7.010;2023-05-22T05:27:44;100663.97;;;18.94;92.15
3082;BME280;1551;51.046;7.010;2023-05-22T05:30:34;100673.16;;;19.01;91.92
3082;BME280;1551;51.046;7.010;2023-05-22T05:33:38;100675.19;;;19.13;92.03
3082;BME280;1551;51.046;7.010;2023-05-22T05:36:32;100676.09;;;19.12;91.06
3082;BME280;1551;51.046;7.010;2023-05-22T05:39:22;100644.44;;;18.85;91.23
3082;BME280;1551;51.046;7.010;2023-05-22T05:42:12;100677.56;;;18.99;91.03
3082;BME280;1551;51.046;7.010;2023-05-22T05:45:01;100654.19;;;18.80;91.89
3082;BME280;1551;51.046;7.010;2023-05-22T05:47:52;100678.81;;;18.90;91.32
3082;BME280;1551;51.046;7.010;2023-05-22T05:50:41;100694.00;;;18.79;91.26
3082;BME280;1551;51.046;7.010;2023-05-22T05:53:31;100687.28;;;18.75;91.56
3082;BME280;1551;51.046;7.010;2023-05-22T05:56:21;100676.78;;;18.58;91.30
3082;BME280;1551;51.046;7.010;2023-05-22T05:59:10;100699.59;;;18.70;91.63
3082;BME280;1551;51.046;7.010;2023-05-22T06:01:59;100698.44;;;18.77;92.16
3082;BME280;1551;51.046;7.010;2023-05-22T06:04:53;100705.25;;;18.98;91.68
3082;BME280;1551;51.046;7.010;2023-05-22T06:07:44;100703.03;;;19.09;91.03
3082;BME280;1551;51.046;7.010;2023-05-22T06:10:34;100701.31;;;19.08;90.61
3082;BME280;1551;51.046;7.010;2023-05-22T06:13:33;100696.13;;;18.90;90.51
3082;BME280;1551;51.046;7.010;2023-05-22T06:16:23;100704.31;;;18.81;91.01
3082;BME280;1551;51.046;7.010;2023-05-22T06:19:11;100684.81;;;18.72;91.34
3082;BME280;1551;51.046;7.010;2023-05-22T06:22:02;100692.25;;;18.80;91.28
3082;BME280;1551;51.046;7.010;2023-05-22T06:24:52;100682.13;;;18.74;90.53
3082;BME280;1551;51.046;7.010;2023-05-22T06:27:47;100711.44;;;18.96;91.18
3082;BME280;1551;51.046;7.010;2023-05-22T06:30:38;100701.75;;;18.99;90.45
3082;BME280;1551;51.046;7.010;2023-05-22T06:33:28;100702.91;;;19.12;90.37
3082;BME280;1551;51.046;7.010;2023-05-22T06:36:17;100705.16;;;19.20;89.42
3082;BME280;1551;51.046;7.010;2023-05-22T06:39:07;100708.34;;;19.25;88.89
3082;BME280;1551;51.046;7.010;2023-05-22T06:42:34;100719.66;;;19.24;89.30
3082;BME280;1551;51.046;7.010;2023-05-22T06:45:50;100724.34;;;19.35;89.27
3082;BME280;1551;51.046;7.010;2023-05-22T06:48:45;100727.03;;;19.33;89.06
3082;BME280;1551;51.046;7.010;2023-05-22T06:51:39;100724.44;;;19.33;89.21
3082;BME280;1551;51.046;7.010;2023-05-22T06:54:32;100732.22;;;19.33;89.58
3082;BME280;1551;51.046;7.010;2023-05-22T06:57:21;100730.38;;;19.16;89.23
3082;BME280;1551;51.046;7.010;2023-05-22T07:00:12;100730.28;;;19.38;89.33
3082;BME280;1551;51.046;7.010;2023-05-22T07:03:24;100739.69;;;19.41;88.27
3082;BME280;1551;51.046;7.010;2023-05-22T07:06:38;100743.53;;;19.69;88.56
3082;BME280;1551;51.046;7.010;2023-05-22T07:09:29;100749.09;;;19.80;87.83
3082;BME280;1551;51.046;7.010;2023-05-22T07:12:18;100751.41;;;19.68;87.12
3082;BME280;1551;51.046;7.010;2023-05-22T07:15:09;100745.44;;;19.66;87.62
3082;BME280;1551;51.046;7.010;2023-05-22T07:18:03;100750.78;;;19.63;87.52
3082;BME280;1551;51.046;7.010;2023-05-22T07:20:52;100746.34;;;19.46;87.93
3082;BME280;1551;51.046;7.010;2023-05-22T07:23:44;100742.22;;;19.42;87.85
3082;BME280;1551;51.046;7.010;2023-05-22T07:26:37;100748.13;;;19.46;87.99
3082;BME280;1551;51.046;7.010;2023-05-22T07:29:31;100744.63;;;19.27;88.18
3082;BME280;1551;51.046;7.010;2023-05-22T07:32:21;100746.25;;;19.29;88.82
3082;BME280;1551;51.046;7.010;2023-05-22T07:35:10;100728.44;;;19.21;88.42
3082;BME280;1551;51.046;7.010;2023-05-22T07:37:59;100751.50;;;19.28;88.31
3082;BME280;1551;51.046;7.010;2023-05-22T07:40:48;100744.25;;;19.15;89.02
3082;BME280;1551;51.046;7.010;2023-05-22T07:43:37;100759.84;;;19.36;89.10
3082;BME280;1551;51.046;7.010;2023-05-22T07:46:27;100760.81;;;19.52;88.28
3082;BME280;1551;51.046;7.010;2023-05-22T07:49:24;100765.94;;;19.53;87.69
3082;BME280;1551;51.046;7.010;2023-05-22T07:52:13;100760.59;;;19.56;88.14
3082;BME280;1551;51.046;7.010;2023-05-22T07:55:03;100763.72;;;19.64;87.41
3082;BME280;1551;51.046;7.010;2023-05-22T07:57:53;100767.50;;;19.57;86.67
3082;BME280;1551;51.046;7.010;2023-05-22T08:00:50;100772.72;;;19.56;87.12
3082;BME280;1551;51.046;7.010;2023-05-22T08:03:39;100765.56;;;19.42;87.36
3082;BME280;1551;51.046;7.010;2023-05-22T08:06:28;100774.66;;;19.52;88.32
3082;BME280;1551;51.046;7.010;2023-05-22T08:09:17;100765.56;;;19.42;88.43
3082;BME280;1551;51.046;7.010;2023-05-22T08:12:09;100773.59;;;19.56;88.14
3082;BME280;1551;51.046;7.010;2023-05-22T08:14:58;100777.16;;;19.54;87.79
3082;BME280;1551;51.046;7.010;2023-05-22T08:17:47;100772.09;;;19.69;88.06
3082;BME280;1551;51.046;7.010;2023-05-22T08:20:36;100778.63;;;19.97;87.11
3082;BME280;1551;51.046;7.010;2023-05-22T08:23:26;100773.28;;;20.00;86.19
3082;BME280;1551;51.046;7.010;2023-05-22T08:26:15;100777.41;;;20.04;85.93
3082;BME280;1551;51.046;7.010;2023-05-22T08:29:04;100777.16;;;19.72;86.06
3082;BME280;1551;51.046;7.010;2023-05-22T08:31:53;100784.59;;;19.80;86.22
3082;BME280;1551;51.046;7.010;2023-05-22T08:34:44;100777.31;;;19.88;86.11
3082;BME280;1551;51.046;7.010;2023-05-22T08:37:34;100786.34;;;19.98;85.70
3082;BME280;1551;51.046;7.010;2023-05-22T08:40:29;100785.69;;;19.93;85.56
3082;BME280;1551;51.046;7.010;2023-05-22T08:43:20;100788.06;;;19.80;85.92
3082;BME280;1551;51.046;7.010;2023-05-22T08:46:09;100786.47;;;19.76;86.12
3082;BME280;1551;51.046;7.010;2023-05-22T08:48:59;100792.19;;;19.84;86.12
3082;BME280;1551;51.046;7.010;2023-05-22T08:51:53;100792.25;;;19.83;85.64
3082;BME280;1551;51.046;7.010;2023-05-22T08:54:49;100793.28;;;19.79;85.27
3082;BME280;1551;51.046;7.010;2023-05-22T08:57:39;100796.59;;;20.01;85.04
3082;BME280;1551;51.046;7.010;2023-05-22T09:00:30;100789.47;;;20.05;84.48
3082;BME280;1551;51.046;7.010;2023-05-22T09:03:19;100786.81;;;20.06;84.20
3082;BME280;1551;51.046;7.010;2023-05-22T09:06:08;100792.03;;;20.06;83.96
3082;BME280;1551;51.046;7.010;2023-05-22T09:08:58;100794.44;;;20.09;83.99
3082;BME280;1551;51.046;7.010;2023-05-22T09:11:49;100797.22;;;20.06;83.66
3082;BME280;1551;51.046;7.010;2023-05-22T09:14:43;100793.91;;;20.03;83.61
3082;BME280;1551;51.046;7.010;2023-05-22T09:17:31;100790.34;;;19.86;83.92
3082;BME280;1551;51.046;7.010;2023-05-22T09:20:20;100796.22;;;20.09;84.32
3082;BME280;1551;51.046;7.010;2023-05-22T09:23:13;100801.88;;;20.17;83.10
3082;BME280;1551;51.046;7.010;2023-05-22T09:26:05;100785.97;;;20.06;83.23
3082;BME280;1551;51.046;7.010;2023-05-22T09:28:54;100796.00;;;20.32;82.90
3082;BME280;1551;51.046;7.010;2023-05-22T09:31:44;100810.31;;;20.40;82.62
3082;BME280;1551;51.046;7.010;2023-05-22T09:34:35;100800.84;;;20.39;82.03
3082;BME280;1551;51.046;7.010;2023-05-22T09:37:27;100811.31;;;20.55;81.93
3082;BME280;1551;51.046;7.010;2023-05-22T09:40:16;100810.78;;;20.66;81.67
3082;BME280;1551;51.046;7.010;2023-05-22T09:43:09;100803.44;;;20.56;81.16
3082;BME280;1551;51.046;7.010;2023-05-22T09:46:01;100811.63;;;20.49;81.08
3082;BME280;1551;51.046;7.010;2023-05-22T09:48:53;100793.41;;;20.32;80.88
3082;BME280;1551;51.046;7.010;2023-05-22T09:51:44;100805.25;;;20.37;80.98
3082;BME280;1551;51.046;7.010;2023-05-22T09:54:40;100810.41;;;20.56;79.89
3082;BME280;1551;51.046;7.010;2023-05-22T09:57:32;100809.19;;;20.80;79.21
3082;BME280;1551;51.046;7.010;2023-05-22T10:00:25;100815.69;;;20.89;78.51
3082;BME280;1551;51.046;7.010;2023-05-22T10:03:15;100807.66;;;21.10;77.92
3082;BME280;1551;51.046;7.010;2023-05-22T10:06:06;100813.19;;;21.37;77.26
3082;BME280;1551;51.046;7.010;2023-05-22T10:09:01;100815.56;;;21.42;76.34
3082;BME280;1551;51.046;7.010;2023-05-22T10:11:52;100812.75;;;21.29;76.15
3082;BME280;1551;51.046;7.010;2023-05-22T10:14:42;100824.00;;;21.30;76.64
3082;BME280;1551;51.046;7.010;2023-05-22T10:17:32;100817.44;;;21.22;75.96
3082;BME280;1551;51.046;7.010;2023-05-22T10:20:23;100813.47;;;21.15;76.20
3082;BME280;1551;51.046;7.010;2023-05-22T10:23:13;100818.66;;;21.33;76.63
3082;BME280;1551;51.046;7.010;2023-05-22T10:26:05;100815.72;;;21.39;76.19
3082;BME280;1551;51.046;7.010;2023-05-22T10:28:59;100813.56;;;21.47;76.40
3082;BME280;1551;51.046;7.010;2023-05-22T10:32:16;100818.94;;;21.59;75.43
3082;BME280;1551;51.046;7.010;2023-05-22T10:35:20;100816.25;;;21.61;75.94
3082;BME280;1551;51.046;7.010;2023-05-22T10:41:05;100804.53;;;22.01;74.62
3082;BME280;1551;51.046;7.010;2023-05-22T10:43:55;100805.94;;;22.06;74.03
3082;BME280;1551;51.046;7.010;2023-05-22T10:46:48;100806.22;;;22.02;74.09
3082;BME280;1551;51.046;7.010;2023-05-22T10:49:44;100801.69;;;21.89;73.95
3082;BME280;1551;51.046;7.010;2023-05-22T10:52:35;100768.97;;;22.00;73.75
3082;BME280;1551;51.046;7.010;2023-05-22T10:55:24;100797.44;;;22.18;73.52
3082;BME280;1551;51.046;7.010;2023-05-22T10:58:14;100805.09;;;22.21;72.86
3082;BME280;1551;51.046;7.010;2023-05-22T11:01:11;100797.88;;;22.26;72.70
3082;BME280;1551;51.046;7.010;2023-05-22T11:04:10;100795.47;;;22.37;71.83
3082;BME280;1551;51.046;7.010;2023-05-22T11:07:03;100794.75;;;22.65;71.91
3082;BME280;1551;51.046;7.010;2023-05-22T11:09:59;100790.16;;;22.54;71.67
3082;BME280;1551;51.046;7.010;2023-05-22T11:13:01;100795.19;;;22.87;71.11
3082;BME280;1551;51.046;7.010;2023-05-22T11:15:53;100780.75;;;23.24;69.17
3082;BME280;1551;51.046;7.010;2023-05-22T11:18:42;100784.31;;;23.09;69.17
3082;BME280;1551;51.046;7.010;2023-05-22T11:21:34;100786.38;;;23.04;68.97
3082;BME280;1551;51.046;7.010;2023-05-22T11:24:23;100783.84;;;23.16;68.77
3082;BME280;1551;51.046;7.010;2023-05-22T11:27:12;100780.91;;;23.37;68.74
3082;BME280;1551;51.046;7.010;2023-05-22T11:30:02;100793.75;;;23.25;68.75
3082;BME280;1551;51.046;7.010;2023-05-22T11:32:52;100789.19;;;23.43;67.79
3082;BME280;1551;51.046;7.010;2023-05-22T11:35:42;100786.56;;;23.43;67.62
3082;BME280;1551;51.046;7.010;2023-05-22T11:38:32;100783.78;;;23.60;67.37
3082;BME280;1551;51.046;7.010;2023-05-22T11:41:22;100786.41;;;23.87;66.31
3082;BME280;1551;51.046;7.010;2023-05-22T11:44:11;100783.38;;;24.34;65.62
3082;BME280;1551;51.046;7.010;2023-05-22T11:47:00;100782.47;;;24.87;64.16
3082;BME280;1551;51.046;7.010;2023-05-22T11:49:50;100775.78;;;24.83;63.38
3082;BME280;1551;51.046;7.010;2023-05-22T11:52:40;100777.31;;;25.23;62.33
3082;BME280;1551;51.046;7.010;2023-05-22T11:55:32;100774.69;;;25.84;60.55
3082;BME280;1551;51.046;7.010;2023-05-22T11:58:26;100769.63;;;25.94;58.94
3082;BME280;1551;51.046;7.010;2023-05-22T12:01:15;100769.41;;;25.97;58.58
3082;BME280;1551;51.046;7.010;2023-05-22T12:04:04;100765.44;;;25.43;59.54
3082;BME280;1551;51.046;7.010;2023-05-22T12:06:53;100760.06;;;25.93;59.83
3082;BME280;1551;51.046;7.010;2023-05-22T12:09:43;100769.91;;;25.78;58.77
3082;BME280;1551;51.046;7.010;2023-05-22T12:12:32;100761.97;;;25.91;59.21
3082;BME280;1551;51.046;7.010;2023-05-22T12:15:22;100765.91;;;26.09;58.76
3082;BME280;1551;51.046;7.010;2023-05-22T12:18:12;100762.75;;;26.51;56.99
3082;BME280;1551;51.046;7.010;2023-05-22T12:21:00;100768.59;;;26.20;57.65
3082;BME280;1551;51.046;7.010;2023-05-22T12:23:53;100756.16;;;26.46;57.58
3082;BME280;1551;51.046;7.010;2023-05-22T12:26:48;100759.25;;;26.40;57.81
3082;BME280;1551;51.046;7.010;2023-05-22T12:29:39;100760.13;;;26.63;56.73
3082;BME280;1551;51.046;7.010;2023-05-22T12:32:28;100757.88;;;26.58;56.35
3082;BME280;1551;51.046;7.010;2023-05-22T12:35:18;100745.28;;;26.39;57.84
3082;BME280;1551;51.046;7.010;2023-05-22T12:38:07;100750.19;;;27.12;57.03
3082;BME280;1551;51.046;7.010;2023-05-22T12:40:57;100751.78;;;27.48;54.78
3082;BME280;1551;51.046;7.010;2023-05-22T12:43:48;100757.63;;;27.51;54.43
3082;BME280;1551;51.046;7.010;2023-05-22T12:46:37;100749.50;;;27.54;54.28
3082;BME280;1551;51.046;7.010;2023-05-22T12:49:26;100753.66;;;27.46;54.37
3082;BME280;1551;51.046;7.010;2023-05-22T12:52:15;100745.78;;;27.46;53.95
3082;BME280;1551;51.046;7.010;2023-05-22T12:55:05;100744.50;;;27.40;54.53
3082;BME280;1551;51.046;7.010;2023-05-22T12:57:54;100746.97;;;27.42;54.36
3082;BME280;1551;51.046;7.010;2023-05-22T13:00:43;100750.41;;;27.75;54.38
3082;BME280;1551;51.046;7.010;2023-05-22T13:03:32;100744.91;;;27.34;54.12
3082;BME280;1551;51.046;7.010;2023-05-22T13:06:21;100738.94;;;27.65;54.81
3082;BME280;1551;51.046;7.010;2023-05-22T13:09:10;100747.59;;;27.45;55.21
3082;BME280;1551;51.046;7.010;2023-05-22T13:12:01;100736.31;;;27.32;54.93
3082;BME280;1551;51.046;7.010;2023-05-22T13:14:50;100727.88;;;27.40;54.63
3082;BME280;1551;51.046;7.010;2023-05-22T13:17:39;100742.06;;;27.59;55.19
3082;BME280;1551;51.046;7.010;2023-05-22T13:20:28;100734.72;;;27.85;53.61
3082;BME280;1551;51.046;7.010;2023-05-22T13:23:17;100733.19;;;28.14;53.88
3082;BME280;1551;51.046;7.010;2023-05-22T13:26:06;100731.84;;;28.20;52.88
3082;BME280;1551;51.046;7.010;2023-05-22T13:28:55;100726.44;;;28.21;53.14
3082;BME280;1551;51.046;7.010;2023-05-22T13:31:44;100735.66;;;28.47;52.50
3082;BME280;1551;51.046;7.010;2023-05-22T13:34:33;100734.97;;;28.14;52.66
3082;BME280;1551;51.046;7.010;2023-05-22T13:37:22;100734.66;;;28.07;53.63
3082;BME280;1551;51.046;7.010;2023-05-22T13:40:11;100735.59;;;27.95;53.52
3082;BME280;1551;51.046;7.010;2023-05-22T13:43:00;100736.69;;;27.92;53.52
3082;BME280;1551;51.046;7.010;2023-05-22T13:45:49;100726.63;;;27.98;53.76
3082;BME280;1551;51.046;7.010;2023-05-22T13:48:38;100730.44;;;28.16;53.65
3082;BME280;1551;51.046;7.010;2023-05-22T13:51:27;100729.59;;;28.15;52.58
3082;BME280;1551;51.046;7.010;2023-05-22T13:54:16;100734.66;;;27.96;53.66
3082;BME280;1551;51.046;7.010;2023-05-22T13:57:05;100730.91;;;27.78;53.67
3082;BME280;1551;51.046;7.010;2023-05-22T13:59:54;100738.28;;;27.84;54.12
3082;BME280;1551;51.046;7.010;2023-05-22T14:02:43;100735.38;;;27.98;54.19
3082;BME280;1551;51.046;7.010;2023-05-22T14:05:33;100744.72;;;28.02;54.02
3082;BME280;1551;51.046;7.010;2023-05-22T14:08:23;100742.09;;;27.91;53.62
3082;BME280;1551;51.046;7.010;2023-05-22T14:11:12;100739.06;;;28.07;54.14
3082;BME280;1551;51.046;7.010;2023-05-22T14:14:01;100743.72;;;28.35;53.50
3082;BME280;1551;51.046;7.010;2023-05-22T14:16:50;100734.59;;;28.18;52.51
3082;BME280;1551;51.046;7.010;2023-05-22T14:19:39;100736.91;;;27.58;54.04
3082;BME280;1551;51.046;7.010;2023-05-22T14:22:28;100739.34;;;27.50;54.43
3082;BME280;1551;51.046;7.010;2023-05-22T14:25:17;100738.88;;;27.45;54.45
3082;BME280;1551;51.046;7.010;2023-05-22T14:28:06;100733.97;;;27.40;55.47
3082;BME280;1551;51.046;7.010;2023-05-22T14:30:56;100730.25;;;27.43;55.65
3082;BME280;1551;51.046;7.010;2023-05-22T14:33:45;100732.34;;;27.60;55.09
3082;BME280;1551;51.046;7.010;2023-05-22T14:36:34;100739.19;;;27.62;54.47
3082;BME280;1551;51.046;7.010;2023-05-22T14:39:25;100719.22;;;27.60;55.02
3082;BME280;1551;51.046;7.010;2023-05-22T14:42:14;100727.72;;;27.30;54.91
3082;BME280;1551;51.046;7.010;2023-05-22T14:45:05;100725.56;;;27.35;56.13
3082;BME280;1551;51.046;7.010;2023-05-22T14:47:54;100709.81;;;27.46;55.15
3082;BME280;1551;51.046;7.010;2023-05-22T14:50:58;100712.06;;;27.17;55.83
3082;BME280;1551;51.046;7.010;2023-05-22T14:53:47;100718.78;;;27.44;55.21
3082;BME280;1551;51.046;7.010;2023-05-22T14:56:36;100704.78;;;27.43;55.62
3082;BME280;1551;51.046;7.010;2023-05-22T14:59:25;100716.13;;;27.44;55.62
3082;BME280;1551;51.046;7.010;2023-05-22T15:02:14;100706.94;;;27.16;55.67
3082;BME280;1551;51.046;7.010;2023-05-22T15:05:03;100699.91;;;26.83;56.14
3082;BME280;1551;51.046;7.010;2023-05-22T15:07:53;100695.28;;;26.52;56.73
3082;BME280;1551;51.046;7.010;2023-05-22T15:10:46;100665.72;;;26.72;57.24
3082;BME280;1551;51.046;7.010;2023-05-22T15:13:34;100663.50;;;27.01;56.52
3082;BME280;1551;51.046;7.010;2023-05-22T15:16:23;100695.59;;;27.04;56.27
3082;BME280;1551;51.046;7.010;2023-05-22T15:19:13;100698.22;;;27.04;56.94
3082;BME280;1551;51.046;7.010;2023-05-22T15:22:02;100687.47;;;26.96;56.23
3082;BME280;1551;51.046;7.010;2023-05-22T15:25:09;100690.81;;;26.76;56.87
3082;BME280;1551;51.046;7.010;2023-05-22T15:27:59;100680.66;;;26.60;57.77
3082;BME280;1551;51.046;7.010;2023-05-22T15:30:49;100676.41;;;26.82;57.56
3082;BME280;1551;51.046;7.010;2023-05-22T15:33:38;100669.44;;;26.58;57.43
3082;BME280;1551;51.046;7.010;2023-05-22T15:36:27;100678.06;;;26.26;58.31